sensor_id;sensor_type;location;lat;lon;timestamp;P1;durP1;ratioP1;P2;durP2;ratioP2
13753;SDS011;6948;51.216;6.778;2023-04-03T00:01:32;7.87;;;4.07;;
13753;SDS011;6948;51.216;6.778;2023-04-03T00:03:58;6.70;;;3.80;;
13753;SDS011;6948;51.216;6.778;2023-04-03T00:06:24;7.00;;;4.10;;
13753;SDS011;6948;51.216;6.778;2023-04-03T00:08:50;6.20;;;3.60;;
13753;SDS011;6948;51.216;6.778;2023-04-03T00:11:16;5.53;;;3.70;;
13753;SDS011;6948;51.216;6.778;2023-04-03T00:13:42;4.40;;;3.40;;
13753;SDS011;6948;51.216;6.778;2023-04-03T00:16:09;5.17;;;3.63;;
13753;SDS011;6948;51.216;6.778;2023-04-03T00:18:35;5.93;;;3.83;;
13753;SDS011;6948;51.216;6.778;2023-04-03T00:21:02;5.97;;;3.97;;
13753;SDS011;6948;51.216;6.778;2023-04-03T00:23:28;5.03;;;3.77;;
13753;SDS011;6948;51.216;6.778;2023-04-03T00:25:54;6.70;;;3.93;;
13753;SDS011;6948;51.216;6.778;2023-04-03T00:28:20;5.80;;;4.17;;
13753;SDS011;6948;51.216;6.778;2023-04-03T00:30:46;5.93;;;4.13;;
13753;SDS011;6948;51.216;6.778;2023-04-03T00:33:14;4.73;;;3.90;;
13753;SDS011;6948;51.216;6.778;2023-04-03T00:35:40;5.40;;;3.67;;
13753;SDS011;6948;51.216;6.778;2023-04-03T00:38:06;5.57;;;3.63;;
13753;SDS011;6948;51.216;6.778;2023-04-03T00:40:33;5.57;;;3.60;;
13753;SDS011;6948;51.216;6.778;2023-04-03T00:43:01;5.97;;;3.60;;
13753;SDS011;6948;51.216;6.778;2023-04-03T00:45:33;4.83;;;3.77;;
13753;SDS011;6948;51.216;6.778;2023-04-03T00:48:01;5.07;;;3.30;;
13753;SDS011;6948;51.216;6.778;2023-04-03T00:50:30;6.30;;;3.70;;
13753;SDS011;6948;51.216;6.778;2023-04-03T00:53:00;5.97;;;3.60;;
13753;SDS011;6948;51.216;6.778;2023-04-03T00:55:26;6.50;;;3.67;;
13753;SDS011;6948;51.216;6.778;2023-04-03T00:57:52;4.90;;;3.50;;
13753;SDS011;6948;51.216;6.778;2023-04-03T01:00:20;7.50;;;3.87;;
13753;SDS011;6948;51.216;6.778;2023-04-03T01:02:48;5.73;;;3.80;;
13753;SDS011;6948;51.216;6.778;2023-04-03T01:05:15;5.00;;;3.93;;
13753;SDS011;6948;51.216;6.778;2023-04-03T01:07:42;5.90;;;3.60;;
13753;SDS011;6948;51.216;6.778;2023-04-03T01:10:09;6.97;;;4.00;;
13753;SDS011;6948;51.216;6.778;2023-04-03T01:12:39;6.00;;;3.77;;
13753;SDS011;6948;51.216;6.778;2023-04-03T01:15:10;5.77;;;3.60;;
13753;SDS011;6948;51.216;6.778;2023-04-03T01:17:40;5.80;;;3.97;;
13753;SDS011;6948;51.216;6.778;2023-04-03T01:25:47;5.40;;;3.30;;
13753;SDS011;6948;51.216;6.778;2023-04-03T01:28:18;7.10;;;3.87;;
13753;SDS011;6948;51.216;6.778;2023-04-03T01:30:48;8.47;;;3.90;;
13753;SDS011;6948;51.216;6.778;2023-04-03T01:33:27;4.70;;;3.70;;
13753;SDS011;6948;51.216;6.778;2023-04-03T01:35:54;4.57;;;3.67;;
13753;SDS011;6948;51.216;6.778;2023-04-03T01:38:20;7.53;;;4.20;;
13753;SDS011;6948;51.216;6.778;2023-04-03T01:40:46;5.97;;;4.53;;
13753;SDS011;6948;51.216;6.778;2023-04-03T01:43:11;8.07;;;5.00;;
13753;SDS011;6948;51.216;6.778;2023-04-03T01:45:37;6.23;;;4.67;;
13753;SDS011;6948;51.216;6.778;2023-04-03T01:48:03;9.30;;;4.63;;
13753;SDS011;6948;51.216;6.778;2023-04-03T01:50:29;6.43;;;4.23;;
13753;SDS011;6948;51.216;6.778;2023-04-03T01:52:55;7.47;;;4.30;;
13753;SDS011;6948;51.216;6.778;2023-04-03T01:55:20;9.23;;;4.37;;
13753;SDS011;6948;51.216;6.778;2023-04-03T01:57:46;6.00;;;4.00;;
13753;SDS011;6948;51.216;6.778;2023-04-03T02:00:12;7.63;;;4.10;;
13753;SDS011;6948;51.216;6.778;2023-04-03T02:02:38;5.23;;;3.60;;
13753;SDS011;6948;51.216;6.778;2023-04-03T02:05:04;6.00;;;3.80;;
13753;SDS011;6948;51.216;6.778;2023-04-03T02:07:30;5.13;;;3.63;;
13753;SDS011;6948;51.216;6.778;2023-04-03T02:09:56;5.07;;;3.70;;
13753;SDS011;6948;51.216;6.778;2023-04-03T02:12:21;7.83;;;4.00;;
13753;SDS011;6948;51.216;6.778;2023-04-03T02:14:47;8.50;;;4.43;;
13753;SDS011;6948;51.216;6.778;2023-04-03T02:17:12;6.43;;;4.20;;
13753;SDS011;6948;51.216;6.778;2023-04-03T02:19:38;5.50;;;4.20;;
13753;SDS011;6948;51.216;6.778;2023-04-03T02:22:04;6.70;;;4.30;;
13753;SDS011;6948;51.216;6.778;2023-04-03T02:24:30;7.07;;;4.73;;
13753;SDS011;6948;51.216;6.778;2023-04-03T02:26:56;5.67;;;3.90;;
13753;SDS011;6948;51.216;6.778;2023-04-03T02:29:22;6.70;;;3.87;;
13753;SDS011;6948;51.216;6.778;2023-04-03T02:31:48;7.87;;;4.27;;
13753;SDS011;6948;51.216;6.778;2023-04-03T02:34:15;6.37;;;4.17;;
13753;SDS011;6948;51.216;6.778;2023-04-03T02:36:40;5.23;;;4.30;;
13753;SDS011;6948;51.216;6.778;2023-04-03T02:39:06;7.53;;;4.17;;
13753;SDS011;6948;51.216;6.778;2023-04-03T02:41:32;6.90;;;4.47;;
13753;SDS011;6948;51.216;6.778;2023-04-03T02:44:02;6.83;;;4.33;;
13753;SDS011;6948;51.216;6.778;2023-04-03T02:46:28;4.20;;;3.80;;
13753;SDS011;6948;51.216;6.778;2023-04-03T02:48:53;6.53;;;4.13;;
13753;SDS011;6948;51.216;6.778;2023-04-03T02:51:19;6.70;;;4.27;;
13753;SDS011;6948;51.216;6.778;2023-04-03T02:53:45;6.70;;;4.70;;
13753;SDS011;6948;51.216;6.778;2023-04-03T02:56:10;6.13;;;4.27;;
13753;SDS011;6948;51.216;6.778;2023-04-03T02:58:36;6.63;;;4.13;;
13753;SDS011;6948;51.216;6.778;2023-04-03T03:01:02;6.20;;;4.10;;
13753;SDS011;6948;51.216;6.778;2023-04-03T03:03:28;5.90;;;4.23;;
13753;SDS011;6948;51.216;6.778;2023-04-03T03:06:00;6.70;;;4.20;;
13753;SDS011;6948;51.216;6.778;2023-04-03T03:08:27;6.93;;;4.57;;
13753;SDS011;6948;51.216;6.778;2023-04-03T03:10:52;7.60;;;4.33;;
13753;SDS011;6948;51.216;6.778;2023-04-03T03:13:18;7.67;;;4.43;;
13753;SDS011;6948;51.216;6.778;2023-04-03T03:15:44;6.03;;;4.20;;
13753;SDS011;6948;51.216;6.778;2023-04-03T03:18:10;7.10;;;4.60;;
13753;SDS011;6948;51.216;6.778;2023-04-03T03:20:35;5.97;;;4.33;;
13753;SDS011;6948;51.216;6.778;2023-04-03T03:23:01;5.17;;;4.37;;
13753;SDS011;6948;51.216;6.778;2023-04-03T03:25:26;8.40;;;4.50;;
13753;SDS011;6948;51.216;6.778;2023-04-03T03:27:52;6.83;;;4.50;;
13753;SDS011;6948;51.216;6.778;2023-04-03T03:30:18;7.63;;;4.77;;
13753;SDS011;6948;51.216;6.778;2023-04-03T03:32:43;8.77;;;4.83;;
13753;SDS011;6948;51.216;6.778;2023-04-03T03:35:09;8.17;;;4.63;;
13753;SDS011;6948;51.216;6.778;2023-04-03T03:37:35;5.93;;;4.47;;
13753;SDS011;6948;51.216;6.778;2023-04-03T03:40:01;6.03;;;4.57;;
13753;SDS011;6948;51.216;6.778;2023-04-03T03:42:27;5.93;;;4.27;;
13753;SDS011;6948;51.216;6.778;2023-04-03T03:44:53;6.80;;;4.97;;
13753;SDS011;6948;51.216;6.778;2023-04-03T03:47:18;7.67;;;4.80;;
13753;SDS011;6948;51.216;6.778;2023-04-03T03:49:44;5.37;;;4.50;;
13753;SDS011;6948;51.216;6.778;2023-04-03T03:52:10;8.67;;;5.03;;
13753;SDS011;6948;51.216;6.778;2023-04-03T03:54:36;5.77;;;4.50;;
13753;SDS011;6948;51.216;6.778;2023-04-03T03:57:02;8.83;;;4.50;;
13753;SDS011;6948;51.216;6.778;2023-04-03T03:59:28;7.07;;;4.40;;
13753;SDS011;6948;51.216;6.778;2023-04-03T04:01:53;6.93;;;4.53;;
13753;SDS011;6948;51.216;6.778;2023-04-03T04:04:20;7.87;;;4.33;;
13753;SDS011;6948;51.216;6.778;2023-04-03T04:06:46;8.63;;;4.43;;
13753;SDS011;6948;51.216;6.778;2023-04-03T04:09:11;8.40;;;4.07;;
13753;SDS011;6948;51.216;6.778;2023-04-03T04:11:37;4.73;;;4.20;;
13753;SDS011;6948;51.216;6.778;2023-04-03T04:14:04;8.17;;;4.30;;
13753;SDS011;6948;51.216;6.778;2023-04-03T04:16:30;7.27;;;4.33;;
13753;SDS011;6948;51.216;6.778;2023-04-03T04:18:56;6.47;;;4.10;;
13753;SDS011;6948;51.216;6.778;2023-04-03T04:21:22;6.07;;;4.30;;
13753;SDS011;6948;51.216;6.778;2023-04-03T04:23:47;5.50;;;4.33;;
13753;SDS011;6948;51.216;6.778;2023-04-03T04:26:13;5.53;;;4.43;;
13753;SDS011;6948;51.216;6.778;2023-04-03T04:28:39;6.43;;;4.40;;
13753;SDS011;6948;51.216;6.778;2023-04-03T04:31:04;6.90;;;3.90;;
13753;SDS011;6948;51.216;6.778;2023-04-03T04:33:30;6.30;;;4.37;;
13753;SDS011;6948;51.216;6.778;2023-04-03T04:35:56;9.77;;;4.90;;
13753;SDS011;6948;51.216;6.778;2023-04-03T04:38:21;7.00;;;4.53;;
13753;SDS011;6948;51.216;6.778;2023-04-03T04:40:47;6.43;;;4.23;;
13753;SDS011;6948;51.216;6.778;2023-04-03T04:43:13;7.20;;;4.20;;
13753;SDS011;6948;51.216;6.778;2023-04-03T04:45:40;6.27;;;4.00;;
13753;SDS011;6948;51.216;6.778;2023-04-03T04:48:06;6.70;;;4.00;;
13753;SDS011;6948;51.216;6.778;2023-04-03T04:50:32;7.70;;;4.10;;
13753;SDS011;6948;51.216;6.778;2023-04-03T04:52:58;6.37;;;3.90;;
13753;SDS011;6948;51.216;6.778;2023-04-03T04:55:23;7.13;;;4.17;;
13753;SDS011;6948;51.216;6.778;2023-04-03T04:57:49;8.47;;;3.70;;
13753;SDS011;6948;51.216;6.778;2023-04-03T05:00:15;7.87;;;4.17;;
13753;SDS011;6948;51.216;6.778;2023-04-03T05:02:41;7.07;;;3.90;;
13753;SDS011;6948;51.216;6.778;2023-04-03T05:05:07;5.50;;;3.77;;
13753;SDS011;6948;51.216;6.778;2023-04-03T05:07:33;6.37;;;3.90;;
13753;SDS011;6948;51.216;6.778;2023-04-03T05:10:00;5.93;;;3.80;;
13753;SDS011;6948;51.216;6.778;2023-04-03T05:12:27;6.07;;;4.37;;
13753;SDS011;6948;51.216;6.778;2023-04-03T05:14:53;7.63;;;4.30;;
13753;SDS011;6948;51.216;6.778;2023-04-03T05:17:18;8.33;;;4.00;;
13753;SDS011;6948;51.216;6.778;2023-04-03T05:19:44;7.03;;;4.17;;
13753;SDS011;6948;51.216;6.778;2023-04-03T05:22:10;6.03;;;3.90;;
13753;SDS011;6948;51.216;6.778;2023-04-03T05:24:35;7.93;;;3.67;;
13753;SDS011;6948;51.216;6.778;2023-04-03T05:27:01;8.90;;;4.10;;
13753;SDS011;6948;51.216;6.778;2023-04-03T05:29:27;7.93;;;4.23;;
13753;SDS011;6948;51.216;6.778;2023-04-03T05:31:53;6.93;;;3.87;;
13753;SDS011;6948;51.216;6.778;2023-04-03T05:34:18;5.93;;;3.67;;
13753;SDS011;6948;51.216;6.778;2023-04-03T05:36:44;6.27;;;3.80;;
13753;SDS011;6948;51.216;6.778;2023-04-03T05:39:10;7.00;;;4.00;;
13753;SDS011;6948;51.216;6.778;2023-04-03T05:41:35;7.37;;;3.63;;
13753;SDS011;6948;51.216;6.778;2023-04-03T05:44:01;8.00;;;3.90;;
13753;SDS011;6948;51.216;6.778;2023-04-03T05:46:27;5.00;;;3.57;;
13753;SDS011;6948;51.216;6.778;2023-04-03T05:48:52;5.30;;;3.37;;
13753;SDS011;6948;51.216;6.778;2023-04-03T05:51:19;7.80;;;3.50;;
13753;SDS011;6948;51.216;6.778;2023-04-03T05:53:48;5.20;;;3.40;;
13753;SDS011;6948;51.216;6.778;2023-04-03T05:56:25;7.70;;;3.40;;
13753;SDS011;6948;51.216;6.778;2023-04-03T05:58:51;6.60;;;3.50;;
13753;SDS011;6948;51.216;6.778;2023-04-03T06:01:17;8.93;;;3.77;;
13753;SDS011;6948;51.216;6.778;2023-04-03T06:03:42;5.60;;;3.10;;
13753;SDS011;6948;51.216;6.778;2023-04-03T06:06:10;7.67;;;3.73;;
13753;SDS011;6948;51.216;6.778;2023-04-03T06:08:38;6.80;;;3.50;;
13753;SDS011;6948;51.216;6.778;2023-04-03T06:11:04;6.67;;;3.30;;
13753;SDS011;6948;51.216;6.778;2023-04-03T06:13:30;8.13;;;3.30;;
13753;SDS011;6948;51.216;6.778;2023-04-03T06:15:56;8.33;;;3.40;;
13753;SDS011;6948;51.216;6.778;2023-04-03T06:18:22;6.10;;;3.30;;
13753;SDS011;6948;51.216;6.778;2023-04-03T06:20:48;7.87;;;3.30;;
13753;SDS011;6948;51.216;6.778;2023-04-03T06:23:13;8.47;;;3.50;;
13753;SDS011;6948;51.216;6.778;2023-04-03T06:25:39;6.87;;;3.33;;
13753;SDS011;6948;51.216;6.778;2023-04-03T06:28:05;7.20;;;3.57;;
13753;SDS011;6948;51.216;6.778;2023-04-03T06:30:34;8.80;;;3.50;;
13753;SDS011;6948;51.216;6.778;2023-04-03T06:33:00;8.27;;;3.50;;
13753;SDS011;6948;51.216;6.778;2023-04-03T06:35:25;7.40;;;3.40;;
13753;SDS011;6948;51.216;6.778;2023-04-03T06:37:53;7.80;;;3.60;;
13753;SDS011;6948;51.216;6.778;2023-04-03T06:40:19;6.27;;;3.13;;
13753;SDS011;6948;51.216;6.778;2023-04-03T06:42:48;8.27;;;3.40;;
13753;SDS011;6948;51.216;6.778;2023-04-03T06:45:14;6.47;;;3.17;;
13753;SDS011;6948;51.216;6.778;2023-04-03T06:47:41;8.20;;;3.27;;
13753;SDS011;6948;51.216;6.778;2023-04-03T06:50:07;6.13;;;3.50;;
13753;SDS011;6948;51.216;6.778;2023-04-03T06:52:36;7.47;;;3.40;;
13753;SDS011;6948;51.216;6.778;2023-04-03T06:55:02;7.33;;;3.30;;
13753;SDS011;6948;51.216;6.778;2023-04-03T06:57:28;8.60;;;3.07;;
13753;SDS011;6948;51.216;6.778;2023-04-03T06:59:54;7.40;;;3.07;;
13753;SDS011;6948;51.216;6.778;2023-04-03T07:02:20;7.37;;;3.50;;
13753;SDS011;6948;51.216;6.778;2023-04-03T07:04:46;6.60;;;3.43;;
13753;SDS011;6948;51.216;6.778;2023-04-03T07:07:12;8.97;;;3.23;;
13753;SDS011;6948;51.216;6.778;2023-04-03T07:09:38;8.83;;;3.10;;
13753;SDS011;6948;51.216;6.778;2023-04-03T07:12:03;7.20;;;3.60;;
13753;SDS011;6948;51.216;6.778;2023-04-03T07:14:29;6.27;;;3.37;;
13753;SDS011;6948;51.216;6.778;2023-04-03T07:16:55;4.90;;;3.27;;
13753;SDS011;6948;51.216;6.778;2023-04-03T07:19:20;8.50;;;3.57;;
13753;SDS011;6948;51.216;6.778;2023-04-03T07:21:46;9.03;;;3.37;;
13753;SDS011;6948;51.216;6.778;2023-04-03T07:24:12;7.73;;;3.27;;
13753;SDS011;6948;51.216;6.778;2023-04-03T07:26:38;6.33;;;2.80;;
13753;SDS011;6948;51.216;6.778;2023-04-03T07:29:03;6.43;;;3.00;;
13753;SDS011;6948;51.216;6.778;2023-04-03T07:31:29;7.67;;;3.40;;
13753;SDS011;6948;51.216;6.778;2023-04-03T07:33:55;7.37;;;3.40;;
13753;SDS011;6948;51.216;6.778;2023-04-03T07:36:21;6.43;;;3.50;;
13753;SDS011;6948;51.216;6.778;2023-04-03T07:38:47;10.20;;;4.00;;
13753;SDS011;6948;51.216;6.778;2023-04-03T07:41:14;7.20;;;2.67;;
13753;SDS011;6948;51.216;6.778;2023-04-03T07:43:42;8.27;;;3.07;;
13753;SDS011;6948;51.216;6.778;2023-04-03T07:46:08;7.93;;;3.07;;
13753;SDS011;6948;51.216;6.778;2023-04-03T07:48:34;7.37;;;3.00;;
13753;SDS011;6948;51.216;6.778;2023-04-03T07:51:00;7.63;;;3.00;;
13753;SDS011;6948;51.216;6.778;2023-04-03T07:53:27;5.77;;;2.80;;
13753;SDS011;6948;51.216;6.778;2023-04-03T07:55:53;5.93;;;2.70;;
13753;SDS011;6948;51.216;6.778;2023-04-03T07:58:21;7.70;;;2.80;;
13753;SDS011;6948;51.216;6.778;2023-04-03T08:00:47;7.90;;;2.70;;
13753;SDS011;6948;51.216;6.778;2023-04-03T08:03:13;7.30;;;2.53;;
13753;SDS011;6948;51.216;6.778;2023-04-03T08:05:41;5.07;;;2.60;;
13753;SDS011;6948;51.216;6.778;2023-04-03T08:08:09;6.73;;;2.50;;
13753;SDS011;6948;51.216;6.778;2023-04-03T08:10:37;7.50;;;2.80;;
13753;SDS011;6948;51.216;6.778;2023-04-03T08:13:03;4.67;;;2.60;;
13753;SDS011;6948;51.216;6.778;2023-04-03T08:15:29;6.17;;;2.90;;
13753;SDS011;6948;51.216;6.778;2023-04-03T08:17:56;5.30;;;3.00;;
13753;SDS011;6948;51.216;6.778;2023-04-03T08:20:23;6.97;;;2.67;;
13753;SDS011;6948;51.216;6.778;2023-04-03T08:22:48;5.00;;;2.63;;
13753;SDS011;6948;51.216;6.778;2023-04-03T08:25:14;6.17;;;2.80;;
13753;SDS011;6948;51.216;6.778;2023-04-03T08:27:40;5.87;;;2.80;;
13753;SDS011;6948;51.216;6.778;2023-04-03T08:30:06;3.80;;;2.20;;
13753;SDS011;6948;51.216;6.778;2023-04-03T08:32:33;4.67;;;2.40;;
13753;SDS011;6948;51.216;6.778;2023-04-03T08:35:00;4.17;;;1.93;;
13753;SDS011;6948;51.216;6.778;2023-04-03T08:37:26;6.00;;;2.30;;
13753;SDS011;6948;51.216;6.778;2023-04-03T08:39:53;5.00;;;2.10;;
13753;SDS011;6948;51.216;6.778;2023-04-03T08:45:27;5.27;;;2.30;;
13753;SDS011;6948;51.216;6.778;2023-04-03T08:48:19;3.17;;;1.87;;
13753;SDS011;6948;51.216;6.778;2023-04-03T08:50:50;3.33;;;1.90;;
13753;SDS011;6948;51.216;6.778;2023-04-03T08:53:20;3.33;;;1.80;;
13753;SDS011;6948;51.216;6.778;2023-04-03T08:55:50;4.13;;;2.30;;
13753;SDS011;6948;51.216;6.778;2023-04-03T08:58:18;4.60;;;2.10;;
13753;SDS011;6948;51.216;6.778;2023-04-03T09:00:50;3.00;;;1.93;;
13753;SDS011;6948;51.216;6.778;2023-04-03T09:03:29;3.03;;;1.83;;
13753;SDS011;6948;51.216;6.778;2023-04-03T09:05:59;3.33;;;1.83;;
13753;SDS011;6948;51.216;6.778;2023-04-03T09:08:32;3.87;;;1.97;;
13753;SDS011;6948;51.216;6.778;2023-04-03T09:11:26;5.00;;;1.77;;
13753;SDS011;6948;51.216;6.778;2023-04-03T09:14:07;3.07;;;1.80;;
13753;SDS011;6948;51.216;6.778;2023-04-03T09:22:11;3.67;;;1.87;;
13753;SDS011;6948;51.216;6.778;2023-04-03T09:25:00;3.97;;;1.83;;
13753;SDS011;6948;51.216;6.778;2023-04-03T09:27:33;4.03;;;2.03;;
13753;SDS011;6948;51.216;6.778;2023-04-03T09:29:59;3.87;;;2.17;;
13753;SDS011;6948;51.216;6.778;2023-04-03T09:32:27;4.10;;;1.97;;
13753;SDS011;6948;51.216;6.778;2023-04-03T09:34:56;3.63;;;2.10;;
13753;SDS011;6948;51.216;6.778;2023-04-03T09:37:38;3.73;;;2.10;;
13753;SDS011;6948;51.216;6.778;2023-04-03T09:40:27;3.20;;;1.90;;
13753;SDS011;6948;51.216;6.778;2023-04-03T09:45:52;6.53;;;2.30;;
13753;SDS011;6948;51.216;6.778;2023-04-03T09:48:19;4.70;;;1.97;;
13753;SDS011;6948;51.216;6.778;2023-04-03T09:53:29;3.30;;;2.10;;
13753;SDS011;6948;51.216;6.778;2023-04-03T09:55:58;6.07;;;2.20;;
13753;SDS011;6948;51.216;6.778;2023-04-03T09:58:27;4.97;;;2.30;;
13753;SDS011;6948;51.216;6.778;2023-04-03T10:00:56;3.77;;;1.87;;
13753;SDS011;6948;51.216;6.778;2023-04-03T10:03:25;3.80;;;2.50;;
13753;SDS011;6948;51.216;6.778;2023-04-03T10:05:54;7.90;;;2.13;;
13753;SDS011;6948;51.216;6.778;2023-04-03T10:11:08;4.27;;;2.63;;
13753;SDS011;6948;51.216;6.778;2023-04-03T10:13:49;4.93;;;2.43;;
13753;SDS011;6948;51.216;6.778;2023-04-03T10:16:39;3.93;;;2.03;;
13753;SDS011;6948;51.216;6.778;2023-04-03T10:21:59;3.70;;;2.40;;
13753;SDS011;6948;51.216;6.778;2023-04-03T10:29:54;3.30;;;2.20;;
13753;SDS011;6948;51.216;6.778;2023-04-03T10:38:34;4.30;;;2.30;;
13753;SDS011;6948;51.216;6.778;2023-04-03T10:44:06;5.93;;;2.70;;
13753;SDS011;6948;51.216;6.778;2023-04-03T10:46:43;2.97;;;2.07;;
13753;SDS011;6948;51.216;6.778;2023-04-03T10:49:18;5.13;;;2.20;;
13753;SDS011;6948;51.216;6.778;2023-04-03T10:52:00;3.20;;;2.10;;
13753;SDS011;6948;51.216;6.778;2023-04-03T10:54:37;4.37;;;2.20;;
13753;SDS011;6948;51.216;6.778;2023-04-03T10:57:08;4.67;;;1.83;;
13753;SDS011;6948;51.216;6.778;2023-04-03T11:02:18;3.40;;;2.00;;
13753;SDS011;6948;51.216;6.778;2023-04-03T11:05:06;3.93;;;1.90;;
13753;SDS011;6948;51.216;6.778;2023-04-03T11:07:47;5.50;;;2.30;;
13753;SDS011;6948;51.216;6.778;2023-04-03T11:10:21;4.80;;;2.37;;
13753;SDS011;6948;51.216;6.778;2023-04-03T11:12:56;4.07;;;2.20;;
13753;SDS011;6948;51.216;6.778;2023-04-03T11:15:29;4.00;;;1.80;;
13753;SDS011;6948;51.216;6.778;2023-04-03T11:18:00;4.73;;;1.80;;
13753;SDS011;6948;51.216;6.778;2023-04-03T11:20:46;2.37;;;1.60;;
13753;SDS011;6948;51.216;6.778;2023-04-03T11:23:25;2.23;;;1.50;;
13753;SDS011;6948;51.216;6.778;2023-04-03T11:25:55;3.00;;;1.40;;
13753;SDS011;6948;51.216;6.778;2023-04-03T11:28:31;3.60;;;1.70;;
13753;SDS011;6948;51.216;6.778;2023-04-03T11:36:52;3.40;;;1.30;;
13753;SDS011;6948;51.216;6.778;2023-04-03T11:39:26;3.30;;;1.20;;
13753;SDS011;6948;51.216;6.778;2023-04-03T11:41:55;2.00;;;1.43;;
13753;SDS011;6948;51.216;6.778;2023-04-03T11:44:40;2.53;;;1.67;;
13753;SDS011;6948;51.216;6.778;2023-04-03T11:47:07;2.63;;;1.37;;
13753;SDS011;6948;51.216;6.778;2023-04-03T11:49:51;2.07;;;1.33;;
13753;SDS011;6948;51.216;6.778;2023-04-03T12:11:23;2.70;;;1.70;;
13753;SDS011;6948;51.216;6.778;2023-04-03T12:24:32;2.50;;;1.60;;
13753;SDS011;6948;51.216;6.778;2023-04-03T12:41:04;2.57;;;1.97;;
13753;SDS011;6948;51.216;6.778;2023-04-03T12:44:09;3.13;;;1.60;;
13753;SDS011;6948;51.216;6.778;2023-04-03T12:46:42;3.67;;;1.57;;
13753;SDS011;6948;51.216;6.778;2023-04-03T12:49:14;5.83;;;1.70;;
13753;SDS011;6948;51.216;6.778;2023-04-03T12:52:05;2.73;;;1.63;;
13753;SDS011;6948;51.216;6.778;2023-04-03T12:54:42;6.43;;;1.70;;
13753;SDS011;6948;51.216;6.778;2023-04-03T12:57:16;4.53;;;1.80;;
13753;SDS011;6948;51.216;6.778;2023-04-03T12:59:43;2.53;;;1.60;;
13753;SDS011;6948;51.216;6.778;2023-04-03T13:02:20;3.87;;;1.50;;
13753;SDS011;6948;51.216;6.778;2023-04-03T13:04:58;2.60;;;1.50;;
13753;SDS011;6948;51.216;6.778;2023-04-03T13:07:32;5.10;;;1.63;;
13753;SDS011;6948;51.216;6.778;2023-04-03T13:12:55;2.33;;;1.60;;
13753;SDS011;6948;51.216;6.778;2023-04-03T13:15:48;1.87;;;1.53;;
13753;SDS011;6948;51.216;6.778;2023-04-03T13:18:31;2.60;;;1.77;;
13753;SDS011;6948;51.216;6.778;2023-04-03T13:21:02;4.33;;;1.80;;
13753;SDS011;6948;51.216;6.778;2023-04-03T13:23:40;4.27;;;1.93;;
13753;SDS011;6948;51.216;6.778;2023-04-03T13:26:09;4.43;;;1.60;;
13753;SDS011;6948;51.216;6.778;2023-04-03T13:28:36;3.53;;;1.80;;
13753;SDS011;6948;51.216;6.778;2023-04-03T13:31:07;4.67;;;1.67;;
13753;SDS011;6948;51.216;6.778;2023-04-03T13:33:43;2.90;;;1.70;;
13753;SDS011;6948;51.216;6.778;2023-04-03T13:36:21;2.80;;;1.80;;
13753;SDS011;6948;51.216;6.778;2023-04-03T13:41:49;3.27;;;1.90;;
13753;SDS011;6948;51.216;6.778;2023-04-03T13:46:54;3.80;;;1.90;;
13753;SDS011;6948;51.216;6.778;2023-04-03T13:49:39;2.97;;;1.87;;
13753;SDS011;6948;51.216;6.778;2023-04-03T13:54:55;8.00;;;1.90;;
13753;SDS011;6948;51.216;6.778;2023-04-03T13:57:25;3.63;;;1.70;;
13753;SDS011;6948;51.216;6.778;2023-04-03T13:59:51;3.67;;;1.87;;
13753;SDS011;6948;51.216;6.778;2023-04-03T14:02:19;4.87;;;2.10;;
13753;SDS011;6948;51.216;6.778;2023-04-03T14:04:55;6.13;;;2.07;;
13753;SDS011;6948;51.216;6.778;2023-04-03T14:07:26;3.07;;;1.90;;
13753;SDS011;6948;51.216;6.778;2023-04-03T14:09:53;5.17;;;2.00;;
13753;SDS011;6948;51.216;6.778;2023-04-03T14:12:24;3.63;;;1.90;;
13753;SDS011;6948;51.216;6.778;2023-04-03T14:15:02;2.80;;;1.80;;
13753;SDS011;6948;51.216;6.778;2023-04-03T14:17:30;3.63;;;1.90;;
13753;SDS011;6948;51.216;6.778;2023-04-03T14:19:59;3.87;;;1.80;;
13753;SDS011;6948;51.216;6.778;2023-04-03T14:22:28;4.80;;;2.00;;
13753;SDS011;6948;51.216;6.778;2023-04-03T14:24:56;4.83;;;2.37;;
13753;SDS011;6948;51.216;6.778;2023-04-03T14:27:24;4.70;;;2.00;;
13753;SDS011;6948;51.216;6.778;2023-04-03T14:29:59;4.23;;;2.20;;
13753;SDS011;6948;51.216;6.778;2023-04-03T14:32:26;4.27;;;1.67;;
13753;SDS011;6948;51.216;6.778;2023-04-03T14:34:52;2.97;;;1.80;;
13753;SDS011;6948;51.216;6.778;2023-04-03T14:37:21;4.13;;;1.77;;
13753;SDS011;6948;51.216;6.778;2023-04-03T14:39:49;3.43;;;1.93;;
13753;SDS011;6948;51.216;6.778;2023-04-03T14:42:17;3.20;;;2.27;;
13753;SDS011;6948;51.216;6.778;2023-04-03T14:44:46;3.87;;;1.87;;
13753;SDS011;6948;51.216;6.778;2023-04-03T14:47:13;4.37;;;1.97;;
13753;SDS011;6948;51.216;6.778;2023-04-03T14:49:41;3.93;;;1.90;;
13753;SDS011;6948;51.216;6.778;2023-04-03T14:52:17;4.10;;;2.20;;
13753;SDS011;6948;51.216;6.778;2023-04-03T14:54:46;2.97;;;1.77;;
13753;SDS011;6948;51.216;6.778;2023-04-03T14:57:13;2.90;;;1.60;;
13753;SDS011;6948;51.216;6.778;2023-04-03T14:59:40;2.80;;;1.67;;
13753;SDS011;6948;51.216;6.778;2023-04-03T15:02:22;3.17;;;1.70;;
13753;SDS011;6948;51.216;6.778;2023-04-03T15:05:02;2.87;;;1.90;;
13753;SDS011;6948;51.216;6.778;2023-04-03T15:07:30;2.90;;;1.90;;
13753;SDS011;6948;51.216;6.778;2023-04-03T15:10:02;4.33;;;1.73;;
13753;SDS011;6948;51.216;6.778;2023-04-03T15:12:44;4.07;;;1.83;;
13753;SDS011;6948;51.216;6.778;2023-04-03T15:15:10;4.00;;;1.97;;
13753;SDS011;6948;51.216;6.778;2023-04-03T15:17:37;3.07;;;2.00;;
13753;SDS011;6948;51.216;6.778;2023-04-03T15:20:05;3.70;;;2.07;;
13753;SDS011;6948;51.216;6.778;2023-04-03T15:22:41;3.33;;;1.73;;
13753;SDS011;6948;51.216;6.778;2023-04-03T15:25:07;4.80;;;1.73;;
13753;SDS011;6948;51.216;6.778;2023-04-03T15:27:33;3.47;;;1.77;;
13753;SDS011;6948;51.216;6.778;2023-04-03T15:29:59;4.47;;;2.00;;
13753;SDS011;6948;51.216;6.778;2023-04-03T15:32:25;3.73;;;2.10;;
13753;SDS011;6948;51.216;6.778;2023-04-03T15:34:51;4.77;;;2.07;;
13753;SDS011;6948;51.216;6.778;2023-04-03T15:37:16;3.93;;;2.30;;
13753;SDS011;6948;51.216;6.778;2023-04-03T15:39:42;4.77;;;1.93;;
13753;SDS011;6948;51.216;6.778;2023-04-03T15:42:08;4.80;;;1.90;;
13753;SDS011;6948;51.216;6.778;2023-04-03T15:44:34;3.13;;;1.60;;
13753;SDS011;6948;51.216;6.778;2023-04-03T15:47:00;4.20;;;1.57;;
13753;SDS011;6948;51.216;6.778;2023-04-03T15:49:26;3.33;;;2.40;;
13753;SDS011;6948;51.216;6.778;2023-04-03T15:51:53;2.90;;;2.10;;
13753;SDS011;6948;51.216;6.778;2023-04-03T15:54:19;3.57;;;2.00;;
13753;SDS011;6948;51.216;6.778;2023-04-03T15:56:45;4.23;;;1.90;;
13753;SDS011;6948;51.216;6.778;2023-04-03T15:59:10;3.60;;;2.07;;
13753;SDS011;6948;51.216;6.778;2023-04-03T16:01:36;5.77;;;2.10;;
13753;SDS011;6948;51.216;6.778;2023-04-03T16:04:03;5.40;;;2.20;;
13753;SDS011;6948;51.216;6.778;2023-04-03T16:06:30;3.67;;;1.97;;
13753;SDS011;6948;51.216;6.778;2023-04-03T16:08:56;6.67;;;2.10;;
13753;SDS011;6948;51.216;6.778;2023-04-03T16:11:24;3.50;;;1.70;;
13753;SDS011;6948;51.216;6.778;2023-04-03T16:13:51;2.93;;;1.73;;
13753;SDS011;6948;51.216;6.778;2023-04-03T16:16:16;4.03;;;1.70;;
13753;SDS011;6948;51.216;6.778;2023-04-03T16:18:42;2.60;;;1.60;;
13753;SDS011;6948;51.216;6.778;2023-04-03T16:21:08;5.13;;;1.73;;
13753;SDS011;6948;51.216;6.778;2023-04-03T16:23:34;3.53;;;2.00;;
13753;SDS011;6948;51.216;6.778;2023-04-03T16:26:00;4.43;;;2.50;;
13753;SDS011;6948;51.216;6.778;2023-04-03T16:28:26;3.20;;;2.10;;
13753;SDS011;6948;51.216;6.778;2023-04-03T16:30:52;3.93;;;2.23;;
13753;SDS011;6948;51.216;6.778;2023-04-03T16:33:17;4.00;;;2.17;;
13753;SDS011;6948;51.216;6.778;2023-04-03T16:35:46;4.20;;;2.00;;
13753;SDS011;6948;51.216;6.778;2023-04-03T16:38:13;3.80;;;2.00;;
13753;SDS011;6948;51.216;6.778;2023-04-03T16:40:40;5.13;;;1.80;;
13753;SDS011;6948;51.216;6.778;2023-04-03T16:43:06;3.37;;;1.80;;
13753;SDS011;6948;51.216;6.778;2023-04-03T16:45:32;6.00;;;2.10;;
13753;SDS011;6948;51.216;6.778;2023-04-03T16:47:57;4.20;;;2.10;;
13753;SDS011;6948;51.216;6.778;2023-04-03T16:50:23;3.40;;;1.70;;
13753;SDS011;6948;51.216;6.778;2023-04-03T16:52:49;4.13;;;2.10;;